Herborn, Illinois
Current Conditions -  °F | °C
As of 7:53 AM on Sunday 25 Jan 2015 (Local Time) from KMTO Reporting Station
Light Rain Light Rain  
Wind Chill: 36°   Ceiling: 3500
Heat Index: 36°   Visibility: 6mi
Dew Point: 34°   Wind: 3mph
Humidity: 93%   Direction: 170°S
Pressure: 29.6"   Gusts: NA
Location:  39.3879°N, 88.6432°W
Report Text: KMTO 251353Z AUTO 17003KT 6SM -RA BR OVC035 02/01 A2960 RMK AO2 SLP029 P0000 T00220011
Loading
Personal Weather Stations






























Interactive Weather Map New forecast layout! Learn more

10-Day Weather Forecast

Advertisements
Track Severe Weather on mobile